• Join FlightAware (Why Join?)
  • Login
  • US Flag 
04:32AM EDT


 

Airport Tracker/Info


-or-


 

Live Flight TrackerFlight Track Log ✈ SWA650 ✈ 17-Jul-2013 ✈ KMDW - KSTL

Flight Track Log - Related Links

Times and Time Zones

All times are in EDT time to prevent confusion due to time zone crossing. See the SWA650 flight status page for this flight to view local times or setup timezone preferences in your user account.

Time Position Orientation Groundspeed Altitude Reporting Facility
EDT Latitude Longitude Course Direction KTS MPH feet Rate Location/Type
09:02AM 41.7500 -87.8000 196° South 189 217 2,500  Level Chicago TRACON
09:04AM 41.6711 -87.8567 208° Southwest 231 266 5,700 2,700 Climbing Chicago Center
09:05AM 41.5978 -87.9022 205° Southwest 282 325 9,000 3,000 Climbing Chicago Center
09:06AM 41.5250 -87.9514 207° Southwest 291 335 12,000 3,000 Climbing Chicago Center
09:07AM 41.4317 -88.0147 207° Southwest 341 392 15,300 2,760 Climbing Chicago Center
09:08AM 41.2819 -88.0610 196° South  Level FlightAware Approximate
09:08AM 41.3392 -88.0525 197° South 359 413 17,800  Level Chicago Center
09:09AM 41.2419 -88.0847 194° South 361 415 20,000 1,500 Climbing Chicago Center
09:10AM 41.1331 -88.0972 185° South 394 453 21,000 1,380 Climbing Chicago Center
09:11AM 40.9981 -88.1144 185° South 406 467 22,900 1,500 Climbing Chicago Center
09:12AM 40.8797 -88.1281 185° South 421 484 24,100 1,320 Climbing Chicago Center
09:13AM 40.7603 -88.1431 185° South 431 496 25,700 900 Climbing Chicago Center
09:14AM 40.6417 -88.1561 185° South 431 496 26,000 120 Climbing Chicago Center
09:15AM 40.5267 -88.1900 193° South 429 494 26,000  Level Chicago Center
09:16AM 40.3936 -88.2528 200° South 425 489 26,000  Level Chicago Center
09:17AM 40.2825 -88.3058 200° South 425 489 26,000  Level Chicago Center
09:18AM 40.1814 -88.3528 200° South 427 491 26,000 -240 Level Chicago Center
09:19AM 40.0486 -88.4153 200° South 422 486 25,500 -720 Descending Chicago Center
09:20AM 39.9361 -88.4678 200° South 429 494 24,500 -840 Descending Chicago Center
09:21AM 39.8483 -88.5078 199° South 422 486 24,000 -300 Descending Kansas City Center
09:22AM 39.7417 -88.5575 200° South 414 476 24,000  Level Kansas City Center
09:23AM 39.6339 -88.6058 199° South 410 472 24,000  Level Kansas City Center
09:24AM 39.5386 -88.6822 212° Southwest 405 466 24,000  Level Kansas City Center
09:25AM 39.4503 -88.7781 220° Southwest 410 472 24,000  Level Kansas City Center
09:26AM 39.3575 -88.8800 220° Southwest 417 480 24,000  Level Kansas City Center
09:27AM 39.2675 -88.9764 220° Southwest 419 482 24,000  Level Kansas City Center
09:28AM 39.1781 -89.0706 219° Southwest 417 480 24,000  Level Kansas City Center
09:29AM 39.0850 -89.1881 224° Southwest 406 467 24,000 -1,200 Level Kansas City Center
09:30AM 39.0531 -89.3414 255° West 408 470 21,600 -2,280 Descending Kansas City Center
09:31AM 39.0217 -89.4744 253° West 395 455 19,400 -2,220 Descending Kansas City Center
09:32AM 38.9914 -89.6122 254° West 376 433 17,000 -2,160 Descending Kansas City Center
09:33AM 38.9517 -89.7350 247° West 375 432 15,000 -1,320 Descending Kansas City Center
09:34AM 38.9192 -89.8392 248° West 350 403 14,400 -1,380 Descending Kansas City Center
09:35AM 38.8844 -89.9469 248° West 343 395 12,200 -2,040 Descending Kansas City Center
09:36AM 38.8439 -90.0764 248° West 329 379 10,200 -1,560 Descending Kansas City Center
09:38AM 38.8133 -90.1714 248° West 295 339 9,000 -1,200 Descending Kansas City Center
09:39AM 38.8167 -90.2622 273° West 279 321 7,800 -1,080 Descending Kansas City Center
09:40AM 38.8517 -90.3383 301° West 262 302 6,900 -1,080 Descending Kansas City Center
09:41AM 38.8853 -90.4111 301° West 249 287 5,600 -1,200 Descending Kansas City Center
09:42AM 38.9239 -90.4958 300° West 236 272 4,500 -780 Descending Kansas City Center
09:43AM 38.9117 -90.5575 256° West 239 275 4,000 -360 Descending Kansas City Center
09:44AM 38.8575 -90.5622 184° South 228 262 3,800 -540 Descending Kansas City Center
09:45AM 38.8169 -90.5072 133° Southeast 216 249 3,000 -1,020 Descending Kansas City Center
09:46AM 38.7889 -90.4475 121° Southeast 204 235 1,800 -960 Descending Kansas City Center
09:47AM 38.7692 -90.4003 118° Southeast 169 194 1,100 -600 Descending Kansas City Center
09:48AM 38.7458 -90.3542 123° Southeast 151 174 600 -480 Descending Kansas City Center